DIGEL EDRY-EDVE
Flight info
| Callsign | DIGEL |
|---|---|
| Flight time | N/A |
| Altitude | 5500 |
| Route | INBOS DCT ALOSI |
| Aircraft | BE9L/L-SBDFGRY/SB1 |
Departure
| Time | 2026-04-27 18:36 |
|---|---|
| Airport | Speyer Airfield (EDRY) |
Arrival
| Time | N/A |
|---|---|
| Airport | Braunschweig-Wolfsburg Airport (EDVE) |
| Time | Latitude | Longitude | Altitude | Speed | Heading |
|---|---|---|---|---|---|
| 2026-04-27 18:12 | 49.30345 | 8.45404 | 310 ft | 0 kts | 255° |
| 2026-04-27 18:25 | 49.30344 | 8.45396 | 310 ft | 4 kts | 255° |
| 2026-04-27 18:25 | 49.30329 | 8.45366 | 309 ft | 8 kts | 191° |
| 2026-04-27 18:25 | 49.30243 | 8.45394 | 309 ft | 12 kts | 164° |
| 2026-04-27 18:25 | 49.30151 | 8.45430 | 309 ft | 9 kts | 165° |
| 2026-04-27 18:26 | 49.30109 | 8.45447 | 309 ft | 9 kts | 165° |
| 2026-04-27 18:26 | 49.30043 | 8.45475 | 309 ft | 9 kts | 164° |
| 2026-04-27 18:26 | 49.29976 | 8.45503 | 309 ft | 11 kts | 164° |
| 2026-04-27 18:26 | 49.29891 | 8.45537 | 309 ft | 13 kts | 165° |
| 2026-04-27 18:27 | 49.29792 | 8.45576 | 309 ft | 15 kts | 166° |
| 2026-04-27 18:27 | 49.29699 | 8.45614 | 309 ft | 10 kts | 163° |
| 2026-04-27 18:27 | 49.29627 | 8.45643 | 309 ft | 6 kts | 168° |
| 2026-04-27 18:27 | 49.29603 | 8.45628 | 309 ft | 0 kts | 245° |
| 2026-04-27 18:28 | 49.29602 | 8.45625 | 309 ft | 1 kts | 249° |
| 2026-04-27 18:28 | 49.29594 | 8.45581 | 309 ft | 6 kts | 255° |
| 2026-04-27 18:28 | 49.29519 | 8.45553 | 309 ft | 9 kts | 196° |
| 2026-04-27 18:28 | 49.29487 | 8.45560 | 309 ft | 5 kts | 108° |
| 2026-04-27 18:29 | 49.29496 | 8.45575 | 309 ft | 0 kts | 342° |
| 2026-04-27 18:29 | 49.29499 | 8.45573 | 309 ft | 0 kts | 342° |
| 2026-04-27 18:32 | 49.29501 | 8.45573 | 309 ft | 3 kts | 343° |
| 2026-04-27 18:32 | 49.29813 | 8.45443 | 309 ft | 90 kts | 346° |
| 2026-04-27 18:32 | 49.30067 | 8.45341 | 309 ft | 111 kts | 346° |
| 2026-04-27 18:33 | 49.30736 | 8.45053 | 372 ft | 116 kts | 349° |
| 2026-04-27 18:33 | 49.31369 | 8.44594 | 416 ft | 94 kts | 318° |
| 2026-04-27 18:33 | 49.31915 | 8.43514 | 402 ft | 104 kts | 311° |
| 2026-04-27 18:34 | 49.32215 | 8.42953 | 453 ft | 101 kts | 326° |
| 2026-04-27 18:34 | 49.32814 | 8.42423 | 462 ft | 100 kts | 350° |
| 2026-04-27 18:34 | 49.33496 | 8.42152 | 469 ft | 101 kts | 353° |
| 2026-04-27 18:34 | 49.34201 | 8.41984 | 483 ft | 108 kts | 360° |
| 2026-04-27 18:35 | 49.34979 | 8.41881 | 564 ft | 114 kts | 1° |
| 2026-04-27 18:35 | 49.35795 | 8.41863 | 614 ft | 122 kts | 7° |
| 2026-04-27 18:35 | 49.36633 | 8.41937 | 747 ft | 120 kts | 8° |
| 2026-04-27 18:35 | 49.37779 | 8.41862 | 845 ft | 124 kts | 8° |
| 2026-04-27 18:36 | 49.38342 | 8.41918 | 922 ft | 124 kts | 11° |
| 2026-04-27 18:36 | 49.39185 | 8.42142 | 1026 ft | 124 kts | 18° |
| 2026-04-27 18:36 | 49.40020 | 8.42457 | 1162 ft | 122 kts | 20° |
| 2026-04-27 18:36 | 49.40825 | 8.42798 | 1340 ft | 118 kts | 22° |
| 2026-04-27 18:37 | 49.41562 | 8.43352 | 1439 ft | 118 kts | 52° |
| 2026-04-27 18:37 | 49.41856 | 8.44506 | 1472 ft | 120 kts | 75° |
| 2026-04-27 18:37 | 49.42203 | 8.45582 | 1478 ft | 100 kts | 79° |
| 2026-04-27 18:37 | 49.41839 | 8.46794 | 866 ft | 113 kts | 118° |
| 2026-04-27 18:38 | 49.41668 | 8.47536 | 440 ft | 112 kts | 95° |
| 2026-04-27 18:38 | 49.41577 | 8.48402 | 302 ft | 0 kts | 210° |
| 2026-04-27 18:38 | 49.30345 | 8.45403 | 310 ft | 0 kts | 255° |
| 2026-04-27 18:39 | 49.30327 | 8.45370 | 309 ft | 13 kts | 187° |
| 2026-04-27 18:39 | 49.30260 | 8.45385 | 309 ft | 3 kts | 166° |
| 2026-04-27 18:39 | 49.30207 | 8.45408 | 309 ft | 13 kts | 164° |
| 2026-04-27 18:40 | 49.30134 | 8.45440 | 309 ft | 19 kts | 162° |
| 2026-04-27 18:40 | 49.29974 | 8.45504 | 309 ft | 16 kts | 164° |